Hikarimaru No.17 — JD2956 — position and weather

sailwx.info

Track history (hours):
 
Tides and Currents Weather Stations Pressure Air Temp Water Temp Dewpoint Dewpoint Depression Visibility Wind Speed Wind Dir Waves Ship Positions

Hikarimaru No.17

Last reported at 2016-Jun-01 04:33 UTC. Time now 2016-Jun-01 05:30 UTC.
Position N 34°10' E 134°59'.

Length 105 m; draft 5.5 m.

Type: Tanker. MMSI: 431000984.

Date/timePositionNaut miles runAvg speedWind from/ knotsBaromVisibWave heightAir tempDewpointWater temp
2016-Jun-01 04:33N 34°10' E 134°59'13 1.9
2016-May-31 21:23N 33°56' E 135°00'6 2.6
2016-May-31 19:08N 34°02' E 135°01'5 6.9
2016-May-31 18:24N 34°07' E 135°02'7 8.2
2016-May-31 17:33N 34°14' E 135°00'9 9.5
2016-May-31 16:33N 34°23' E 135°00'1010.3
2016-May-31 15:33N 34°33' E 135°03'  
2016-May-25 06:17N 34°35' E 134°53'7 9.5
2016-May-25 05:33N 34°37' E 135°02'2211.1
2016-May-25 03:33N 34°15' E 135°01'11 2.6
2016-May-24 23:26N 34°09' E 135°11'2 2.1
2016-May-24 22:31N 34°09' E 135°09'0 0.0
2016-May-24 21:31N 34°09' E 135°09'0 0.0
2016-May-24 20:31N 34°09' E 135°09'0 0.0
2016-May-24 19:31N 34°09' E 135°09'0 0.3
2016-May-24 18:33N 34°09' E 135°09'1211.8
2016-May-24 17:33N 34°18' E 134°59'1212.4
2016-May-24 16:33N 34°30' E 135°02'8 7.6
2016-May-24 15:31N 34°35' E 134°55'  
Track history (hours):
 
Tides and Currents Weather Stations Pressure Air Temp Water Temp Dewpoint Dewpoint Depression Visibility Wind Speed Wind Dir Waves Ship Positions

Hikarimaru No.17

Last reported at 2016-Jun-01 04:33 UTC. Time now 2016-Jun-01 05:30 UTC.
Position N 34°10' E 134°59'.

Length 105 m; draft 5.5 m.

Type: Tanker. MMSI: 431000984.

Date/timePositionNaut miles runAvg speedWind from/ knotsBaromVisibWave heightAir tempDewpointWater temp
2016-Jun-01 04:33N 34°10' E 134°59'13 1.9
2016-May-31 21:23N 33°56' E 135°00'6 2.6
2016-May-31 19:08N 34°02' E 135°01'5 6.9
2016-May-31 18:24N 34°07' E 135°02'7 8.2
2016-May-31 17:33N 34°14' E 135°00'9 9.5
2016-May-31 16:33N 34°23' E 135°00'1010.3
2016-May-31 15:33N 34°33' E 135°03'  
2016-May-25 06:17N 34°35' E 134°53'7 9.5
2016-May-25 05:33N 34°37' E 135°02'2211.1
2016-May-25 03:33N 34°15' E 135°01'11 2.6
2016-May-24 23:26N 34°09' E 135°11'2 2.1
2016-May-24 22:31N 34°09' E 135°09'0 0.0
2016-May-24 21:31N 34°09' E 135°09'0 0.0
2016-May-24 20:31N 34°09' E 135°09'0 0.0
2016-May-24 19:31N 34°09' E 135°09'0 0.3
2016-May-24 18:33N 34°09' E 135°09'1211.8
2016-May-24 17:33N 34°18' E 134°59'1212.4
2016-May-24 16:33N 34°30' E 135°02'8 7.6
2016-May-24 15:31N 34°35' E 134°55'  

Dump ship's entire track history